Redruth, United Kingdom
Current Conditions -  °F | °C
As of 11:50 AM on Monday 26 Jan 2015 (Local Time) from EGDR Reporting Station
Broken Clouds Broken Clouds  
Wind Chill: 43°   Ceiling: 25000
Heat Index: 48°   Visibility: 6mi
Dew Point: 37°   Wind: 14mph
Humidity: 66%   Direction: 330°NNW
Pressure: 30.36"   Gusts: NA
Location:  50.23°N, 5.23°W
Report Text: EGDR 261150Z 33012KT 9999 FEW028 SCT032 BKN250 09/03 Q1028 BLU TEMPO SCT022 WHT
Loading
Personal Weather Stations






























Interactive Weather Map New forecast layout! Learn more

10-Day Weather Forecast

Advertisements
Track Severe Weather on mobile